createdAt,value
2017-10-06T00:02:09.822Z,8.40
2017-10-06T00:04:38.136Z,8.40
2017-10-06T00:07:06.583Z,8.50
2017-10-06T00:09:34.881Z,8.50
2017-10-06T00:12:03.120Z,8.40
2017-10-06T00:14:31.002Z,8.30
2017-10-06T00:16:58.465Z,8.40
2017-10-06T00:19:27.880Z,8.40
2017-10-06T00:21:56.096Z,8.40
2017-10-06T00:24:24.069Z,8.30
2017-10-06T00:26:51.513Z,8.30
2017-10-06T00:29:19.025Z,8.30
2017-10-06T00:31:47.249Z,8.40
2017-10-06T00:34:15.511Z,8.40
2017-10-06T00:36:42.969Z,8.40
2017-10-06T00:39:10.790Z,8.30
2017-10-06T00:41:38.236Z,8.20
2017-10-06T00:44:05.690Z,8.20
2017-10-06T00:46:33.145Z,8.10
2017-10-06T00:49:00.598Z,8.20
2017-10-06T00:51:28.063Z,8.20
2017-10-06T00:53:55.510Z,8.20
2017-10-06T00:56:23.770Z,8.10
2017-10-06T00:58:51.225Z,8.10
2017-10-06T01:01:19.044Z,8.00
2017-10-06T01:03:46.501Z,7.90
2017-10-06T01:06:13.961Z,7.90
2017-10-06T01:08:41.418Z,7.80
2017-10-06T01:11:08.866Z,7.70
2017-10-06T01:13:36.345Z,7.70
2017-10-06T01:16:03.805Z,7.70
2017-10-06T01:18:31.266Z,7.70
2017-10-06T01:20:58.734Z,7.80
2017-10-06T01:23:26.205Z,7.80
2017-10-06T01:25:53.653Z,7.90
2017-10-06T01:28:21.112Z,7.90
2017-10-06T01:30:48.578Z,7.90
2017-10-06T01:33:16.050Z,7.80
2017-10-06T01:35:44.312Z,7.90
2017-10-06T01:38:11.768Z,7.90
2017-10-06T01:40:39.231Z,7.90
2017-10-06T01:43:07.485Z,8.00
2017-10-06T01:45:34.942Z,8.00
2017-10-06T01:48:02.401Z,8.10
2017-10-06T01:50:29.861Z,8.20
2017-10-06T01:52:57.310Z,8.20
2017-10-06T01:55:24.765Z,8.30
2017-10-06T01:57:52.223Z,8.30
2017-10-06T02:00:19.694Z,8.40
2017-10-06T02:02:47.252Z,8.30
2017-10-06T02:05:14.705Z,8.30
2017-10-06T02:07:42.153Z,8.30
2017-10-06T02:10:10.091Z,8.30
2017-10-06T02:12:37.529Z,8.30
2017-10-06T02:15:05.022Z,8.30
2017-10-06T02:17:32.482Z,8.40
2017-10-06T02:19:59.942Z,8.40
2017-10-06T02:22:27.437Z,8.40
2017-10-06T02:24:54.918Z,8.40
2017-10-06T02:27:22.413Z,8.40
2017-10-06T02:29:49.873Z,8.40
2017-10-06T02:32:17.345Z,8.40
2017-10-06T02:34:44.804Z,8.40
2017-10-06T02:37:12.253Z,8.40
2017-10-06T02:39:39.712Z,8.40
2017-10-06T02:42:07.201Z,8.40
2017-10-06T02:44:35.477Z,8.60
2017-10-06T02:47:04.306Z,8.60
2017-10-06T02:49:32.532Z,8.70
2017-10-06T02:52:00.759Z,8.60
2017-10-06T02:54:28.202Z,8.60
2017-10-06T02:56:55.654Z,8.60
2017-10-06T02:59:23.122Z,8.60
2017-10-06T03:01:50.584Z,8.60
2017-10-06T03:04:18.045Z,8.60
2017-10-06T03:06:46.415Z,8.60
2017-10-06T03:09:13.871Z,8.70
2017-10-06T03:11:41.359Z,8.70
2017-10-06T03:14:09.420Z,8.70
2017-10-06T03:16:38.689Z,8.70
2017-10-06T03:19:06.350Z,8.70
2017-10-06T03:21:34.069Z,8.60
2017-10-06T03:24:01.622Z,8.50
2017-10-06T03:26:30.789Z,8.40
2017-10-06T03:28:58.243Z,8.50
2017-10-06T03:31:26.018Z,8.50
2017-10-06T03:33:53.473Z,8.50
2017-10-06T03:36:20.949Z,8.40
2017-10-06T03:38:49.245Z,8.50
2017-10-06T03:41:17.858Z,8.50
2017-10-06T03:43:46.237Z,8.50
2017-10-06T03:46:13.698Z,8.50
2017-10-06T03:48:42.084Z,8.50
2017-10-06T03:51:09.558Z,8.40
2017-10-06T03:53:37.011Z,8.30
2017-10-06T03:56:05.447Z,8.30
2017-10-06T03:58:33.740Z,8.40
2017-10-06T04:01:01.259Z,8.40
2017-10-06T04:03:29.698Z,8.50
2017-10-06T04:05:57.768Z,8.50
2017-10-06T04:08:26.137Z,8.50
2017-10-06T04:10:54.355Z,8.60
2017-10-06T04:13:22.581Z,8.70
2017-10-06T04:15:50.045Z,8.70
2017-10-06T04:18:17.782Z,8.70
2017-10-06T04:20:46.116Z,8.80
2017-10-06T04:23:14.349Z,8.70
2017-10-06T04:25:41.890Z,8.70
2017-10-06T04:28:09.350Z,8.60
2017-10-06T04:30:36.804Z,8.60
2017-10-06T04:33:04.261Z,8.60
2017-10-06T04:35:32.622Z,8.60
2017-10-06T04:38:00.981Z,8.70
2017-10-06T04:40:30.034Z,8.60
2017-10-06T04:42:58.306Z,8.60
2017-10-06T04:45:25.989Z,8.60
2017-10-06T04:47:53.449Z,8.50
2017-10-06T04:50:21.885Z,8.60
2017-10-06T04:52:49.343Z,8.50
2017-10-06T04:55:16.844Z,8.50
2017-10-06T04:57:44.986Z,8.60
2017-10-06T05:00:12.860Z,8.60
2017-10-06T05:02:41.057Z,8.60
2017-10-06T05:05:08.817Z,8.90
2017-10-06T05:07:36.265Z,9.10
2017-10-06T05:10:03.754Z,9.10
2017-10-06T05:12:31.984Z,9.10
2017-10-06T05:14:59.442Z,9.00
2017-10-06T05:17:27.387Z,9.10
2017-10-06T05:19:54.849Z,9.10
2017-10-06T05:22:22.541Z,9.10
2017-10-06T05:24:49.992Z,9.10
2017-10-06T05:27:17.661Z,9.00
2017-10-06T05:29:46.246Z,9.00
2017-10-06T05:32:15.343Z,9.00
2017-10-06T05:34:42.880Z,9.00
2017-10-06T05:37:10.378Z,8.90
2017-10-06T05:39:38.590Z,9.00
2017-10-06T05:42:06.041Z,9.00
2017-10-06T05:44:33.512Z,9.00
2017-10-06T05:47:01.033Z,9.00
2017-10-06T05:49:28.501Z,8.90
2017-10-06T05:51:55.945Z,9.00
2017-10-06T05:54:23.401Z,9.10
2017-10-06T05:56:50.861Z,9.20
2017-10-06T05:59:18.326Z,9.20
2017-10-06T06:01:45.787Z,9.20
2017-10-06T06:04:13.245Z,9.30
2017-10-06T06:06:40.700Z,9.30
2017-10-06T06:09:08.158Z,9.30
2017-10-06T06:11:35.629Z,9.40
2017-10-06T06:14:03.098Z,9.40
2017-10-06T06:16:30.549Z,9.40
2017-10-06T06:18:58.010Z,9.50
2017-10-06T06:21:25.469Z,9.40
2017-10-06T06:23:52.945Z,9.50
2017-10-06T06:26:20.465Z,9.50
2017-10-06T06:28:47.926Z,9.50
2017-10-06T06:31:15.374Z,9.50
2017-10-06T06:33:42.845Z,9.60
2017-10-06T06:36:10.306Z,9.60
2017-10-06T06:38:37.765Z,9.70
2017-10-06T06:41:05.217Z,9.80
2017-10-06T06:43:32.674Z,9.80
2017-10-06T06:46:00.129Z,9.90
2017-10-06T06:48:27.585Z,9.90
2017-10-06T06:50:55.041Z,9.90
2017-10-06T06:53:22.497Z,9.90
2017-10-06T06:55:49.961Z,9.90
2017-10-06T06:58:17.409Z,10.00
2017-10-06T07:00:44.875Z,10.00
2017-10-06T07:03:12.330Z,10.20
2017-10-06T07:05:39.810Z,10.30
2017-10-06T07:08:07.273Z,10.50
2017-10-06T07:10:35.504Z,10.80
2017-10-06T07:13:02.965Z,10.80
2017-10-06T07:15:30.426Z,11.00
2017-10-06T07:17:57.893Z,11.20
2017-10-06T07:20:25.373Z,11.40
2017-10-06T07:22:53.629Z,11.50
2017-10-06T07:25:21.095Z,11.50
2017-10-06T07:27:48.552Z,11.50
2017-10-06T07:30:16.011Z,11.60
2017-10-06T07:32:43.466Z,11.50
2017-10-06T07:35:10.923Z,11.40
2017-10-06T07:37:38.385Z,11.40
2017-10-06T07:40:06.648Z,11.40
2017-10-06T07:42:34.134Z,11.40
2017-10-06T07:45:01.585Z,11.50
2017-10-06T07:47:34.637Z,11.90
2017-10-06T07:50:02.093Z,11.90
2017-10-06T07:52:29.548Z,12.10
2017-10-06T07:54:57.009Z,11.80
2017-10-06T07:57:24.465Z,11.50
2017-10-06T07:59:51.930Z,11.10
2017-10-06T08:02:20.338Z,11.20
2017-10-06T08:04:47.812Z,11.30
2017-10-06T08:07:16.030Z,12.30
2017-10-06T08:09:43.492Z,12.30
2017-10-06T08:12:12.845Z,14.70
2017-10-06T08:14:40.301Z,14.70
2017-10-06T08:17:07.758Z,15.90
2017-10-06T08:19:35.212Z,16.60
2017-10-06T08:22:02.674Z,17.20
2017-10-06T08:24:30.148Z,15.50
2017-10-06T08:26:57.608Z,16.70
2017-10-06T08:29:25.059Z,15.90
2017-10-06T08:31:52.521Z,15.60
2017-10-06T08:34:19.978Z,15.40
2017-10-06T08:36:47.428Z,15.20
2017-10-06T08:39:14.881Z,15.10
2017-10-06T08:41:42.421Z,15.60
2017-10-06T08:44:09.875Z,15.00
2017-10-06T08:46:37.330Z,14.90
2017-10-06T08:49:04.768Z,14.20
2017-10-06T08:51:32.231Z,14.70
2017-10-06T08:53:59.676Z,15.00
2017-10-06T08:56:28.427Z,16.10
2017-10-06T08:58:55.881Z,16.10
2017-10-06T09:01:23.336Z,17.20
2017-10-06T09:03:50.795Z,17.60
2017-10-06T09:06:18.248Z,16.90
2017-10-06T09:08:45.692Z,16.20
2017-10-06T09:11:13.164Z,15.60
2017-10-06T09:13:40.621Z,15.10
2017-10-06T09:16:08.069Z,15.10
2017-10-06T09:18:35.521Z,15.20
2017-10-06T09:21:02.972Z,14.80
2017-10-06T09:23:30.428Z,14.30
2017-10-06T09:25:57.885Z,13.90
2017-10-06T09:28:26.565Z,13.40
2017-10-06T09:30:54.029Z,13.40
2017-10-06T09:33:21.472Z,13.50
2017-10-06T09:35:48.920Z,13.70
2017-10-06T09:38:16.677Z,14.20
2017-10-06T09:40:44.141Z,14.40
2017-10-06T09:43:11.592Z,14.60
2017-10-06T09:45:39.047Z,14.70
2017-10-06T09:48:07.538Z,15.00
2017-10-06T09:50:34.989Z,15.10
2017-10-06T09:53:02.441Z,15.10
2017-10-06T09:55:29.897Z,15.20
2017-10-06T09:57:57.356Z,15.40
2017-10-06T10:00:24.809Z,15.20
2017-10-06T10:02:52.276Z,15.00
2017-10-06T10:05:19.721Z,15.00
2017-10-06T10:07:47.184Z,14.60
2017-10-06T10:10:14.636Z,14.60
2017-10-06T10:12:42.092Z,14.60
2017-10-06T10:15:09.576Z,14.80
2017-10-06T10:17:37.028Z,15.20
2017-10-06T10:20:04.485Z,15.30
2017-10-06T10:22:31.961Z,15.40
2017-10-06T10:24:59.420Z,15.50
2017-10-06T10:27:26.870Z,15.60
2017-10-06T10:29:54.321Z,15.80
2017-10-06T10:32:21.780Z,16.00
2017-10-06T10:34:49.233Z,15.90
2017-10-06T10:37:16.688Z,16.50
2017-10-06T10:39:44.143Z,16.40
2017-10-06T10:42:11.600Z,16.50
2017-10-06T10:44:39.072Z,16.30
2017-10-06T10:47:06.513Z,16.00
2017-10-06T10:49:33.976Z,15.80
2017-10-06T10:52:01.432Z,15.60
2017-10-06T10:54:28.880Z,15.30
2017-10-06T10:56:56.543Z,14.80
2017-10-06T10:59:23.996Z,14.30
2017-10-06T11:01:51.452Z,14.10
2017-10-06T11:04:18.919Z,14.00
2017-10-06T11:06:46.382Z,13.60
2017-10-06T11:09:13.825Z,13.60
2017-10-06T11:11:41.273Z,13.40
2017-10-06T11:14:08.748Z,13.40
2017-10-06T11:16:36.195Z,13.20
2017-10-06T11:19:03.652Z,12.90
2017-10-06T11:21:31.107Z,13.00
2017-10-06T11:23:58.562Z,13.10
2017-10-06T11:26:26.016Z,13.00
2017-10-06T11:28:53.536Z,13.00
2017-10-06T11:31:20.996Z,13.10
2017-10-06T11:33:48.436Z,13.10
2017-10-06T11:36:15.893Z,13.20
2017-10-06T11:38:43.362Z,13.30
2017-10-06T11:41:10.836Z,13.50
2017-10-06T11:43:38.304Z,13.50
2017-10-06T11:46:05.757Z,13.10
2017-10-06T11:48:33.207Z,12.80
2017-10-06T11:51:00.671Z,12.60
2017-10-06T11:53:28.138Z,12.10
2017-10-06T11:55:55.601Z,11.70
2017-10-06T11:58:23.060Z,11.50
2017-10-06T12:00:50.524Z,11.60
2017-10-06T12:03:17.976Z,11.80
2017-10-06T12:05:45.412Z,12.10
2017-10-06T12:08:12.877Z,12.30
2017-10-06T12:10:40.347Z,12.40
2017-10-06T12:13:07.799Z,12.40
2017-10-06T12:15:35.244Z,12.50
2017-10-06T12:18:02.696Z,12.40
2017-10-06T12:20:30.152Z,12.40
2017-10-06T12:22:57.625Z,12.50
2017-10-06T12:25:25.069Z,12.60
2017-10-06T12:27:52.548Z,13.00
2017-10-06T12:30:20.770Z,13.10
2017-10-06T12:32:48.220Z,13.10
2017-10-06T12:35:15.675Z,13.00
2017-10-06T12:37:43.140Z,12.80
2017-10-06T12:40:10.585Z,12.70
2017-10-06T12:42:38.041Z,12.50
2017-10-06T12:45:05.500Z,12.50
2017-10-06T12:47:32.972Z,12.50
2017-10-06T12:50:00.431Z,12.40
2017-10-06T12:52:27.880Z,12.40
2017-10-06T12:54:55.337Z,12.10
2017-10-06T12:57:23.762Z,11.60
2017-10-06T12:59:51.221Z,11.40
2017-10-06T13:02:18.665Z,11.00
2017-10-06T13:04:46.117Z,10.70
2017-10-06T13:07:13.557Z,10.70
2017-10-06T13:09:41.923Z,10.50
2017-10-06T13:12:11.869Z,10.50
2017-10-06T13:26:14.858Z,11.40
2017-10-06T13:29:04.856Z,12.20
2017-10-06T13:31:32.618Z,12.20
2017-10-06T13:34:00.693Z,12.50
2017-10-06T13:36:35.790Z,12.50
2017-10-06T13:39:09.105Z,12.50
2017-10-06T13:41:36.622Z,12.50
2017-10-06T13:44:04.266Z,12.50
2017-10-06T13:46:32.576Z,12.60
2017-10-06T13:49:01.220Z,13.10
2017-10-06T13:51:28.754Z,13.00
2017-10-06T13:53:56.192Z,13.00
2017-10-06T13:56:23.940Z,12.70
2017-10-06T13:58:52.147Z,12.80
2017-10-06T14:01:19.611Z,12.80
2017-10-06T14:03:47.061Z,12.80
2017-10-06T14:06:14.517Z,12.80
2017-10-06T14:08:42.376Z,12.80
2017-10-06T14:11:09.869Z,12.60
2017-10-06T14:13:37.316Z,12.70
2017-10-06T14:16:04.774Z,12.70
2017-10-06T14:18:32.253Z,13.00
2017-10-06T14:20:59.700Z,13.00
2017-10-06T14:26:00.946Z,13.00
2017-10-06T14:28:28.397Z,12.90
2017-10-06T14:30:55.845Z,12.80
2017-10-06T14:33:23.317Z,12.60
2017-10-06T14:35:50.768Z,12.50
2017-10-06T14:38:18.220Z,12.40
2017-10-06T14:40:45.680Z,12.30
2017-10-06T14:43:13.154Z,12.30
2017-10-06T14:45:40.612Z,12.20
2017-10-06T14:48:08.068Z,12.20
2017-10-06T14:50:36.407Z,12.10
2017-10-06T14:53:03.876Z,12.00
2017-10-06T14:55:31.329Z,12.00
2017-10-06T14:57:58.800Z,11.90
2017-10-06T15:00:26.274Z,11.90
2017-10-06T15:02:53.713Z,11.80
2017-10-06T15:05:21.206Z,11.80
2017-10-06T15:07:48.639Z,11.70
2017-10-06T15:10:16.120Z,11.70
2017-10-06T15:12:43.613Z,11.60
2017-10-06T15:15:11.096Z,11.40
2017-10-06T15:17:38.566Z,11.40
2017-10-06T15:20:06.087Z,11.20
2017-10-06T15:22:35.732Z,11.10
2017-10-06T15:25:07.359Z,10.90
2017-10-06T15:27:37.339Z,10.90
2017-10-06T15:32:51.292Z,10.80
2017-10-06T15:35:20.833Z,10.80
2017-10-06T15:37:51.254Z,10.70
2017-10-06T15:40:18.814Z,10.80
2017-10-06T15:42:46.291Z,10.80
2017-10-06T15:45:13.736Z,10.80
2017-10-06T15:47:41.191Z,10.70
2017-10-06T15:50:08.633Z,10.70
2017-10-06T15:52:36.092Z,10.70
2017-10-06T15:55:03.548Z,10.70
2017-10-06T15:57:31.005Z,10.70
2017-10-06T15:59:58.461Z,10.70
2017-10-06T16:02:25.921Z,10.70
2017-10-06T16:04:55.290Z,10.70
2017-10-06T16:07:22.736Z,10.80
2017-10-06T16:09:50.181Z,10.80
2017-10-06T16:12:17.648Z,10.80
2017-10-06T16:14:45.865Z,10.90
2017-10-06T16:17:13.315Z,10.90
2017-10-06T16:19:40.776Z,10.90
2017-10-06T16:22:08.235Z,10.90
2017-10-06T16:24:35.688Z,10.90
2017-10-06T16:27:03.144Z,10.90
2017-10-06T16:29:30.608Z,11.00
2017-10-06T16:31:58.053Z,10.90
2017-10-06T16:34:25.508Z,10.90
2017-10-06T16:36:52.960Z,10.80
2017-10-06T16:39:20.416Z,10.80
2017-10-06T16:41:47.859Z,10.80
2017-10-06T16:44:15.308Z,10.70
2017-10-06T16:46:43.520Z,10.80
2017-10-06T16:49:10.980Z,10.70
2017-10-06T16:51:38.428Z,10.80
2017-10-06T16:54:05.900Z,10.80
2017-10-06T16:56:33.359Z,10.90
2017-10-06T16:59:00.812Z,10.70
2017-10-06T17:01:28.268Z,10.80
2017-10-06T17:03:55.715Z,10.70
2017-10-06T17:06:23.174Z,10.80
2017-10-06T17:08:50.616Z,10.60
2017-10-06T17:11:18.072Z,10.50
2017-10-06T17:13:45.524Z,10.50
2017-10-06T17:16:12.979Z,10.60
2017-10-06T17:18:40.430Z,10.60
2017-10-06T17:21:07.871Z,10.60
2017-10-06T17:23:35.324Z,10.70
2017-10-06T17:26:02.784Z,10.70
2017-10-06T17:28:30.232Z,10.70
2017-10-06T17:30:57.690Z,10.70
2017-10-06T17:33:25.900Z,10.70
2017-10-06T17:35:53.373Z,10.70
2017-10-06T17:38:20.828Z,10.70
2017-10-06T17:40:48.283Z,10.70
2017-10-06T17:43:15.741Z,10.70
2017-10-06T17:45:43.196Z,10.80
2017-10-06T17:48:10.656Z,10.80
2017-10-06T17:50:38.113Z,10.70
2017-10-06T17:53:05.568Z,10.70
2017-10-06T17:55:33.018Z,10.60
2017-10-06T17:58:00.481Z,10.60
2017-10-06T18:00:27.937Z,10.70
2017-10-06T18:02:55.396Z,10.70
2017-10-06T18:05:22.852Z,10.70
2017-10-06T18:07:50.314Z,10.70
2017-10-06T18:10:17.776Z,10.70
2017-10-06T18:12:45.230Z,10.80
2017-10-06T18:15:12.684Z,10.80
2017-10-06T18:17:40.152Z,10.70
2017-10-06T18:20:07.596Z,10.80
2017-10-06T18:22:35.043Z,10.80
2017-10-06T18:25:02.505Z,10.80
2017-10-06T18:27:29.957Z,10.60
2017-10-06T18:29:57.415Z,10.70
2017-10-06T18:32:24.863Z,10.80
2017-10-06T18:34:52.321Z,10.80
2017-10-06T18:37:19.777Z,10.60
2017-10-06T18:39:47.233Z,10.60
2017-10-06T18:42:14.682Z,10.60
2017-10-06T18:44:42.132Z,10.70
2017-10-06T18:47:09.580Z,10.60
2017-10-06T18:49:37.108Z,10.50
2017-10-06T18:52:05.317Z,10.50
2017-10-06T18:54:32.790Z,10.50
2017-10-06T18:57:00.237Z,10.50
2017-10-06T18:59:27.684Z,10.50
2017-10-06T19:01:55.132Z,10.40
2017-10-06T19:04:22.588Z,10.50
2017-10-06T19:06:50.053Z,10.50
2017-10-06T19:09:17.527Z,10.50
2017-10-06T19:11:44.977Z,10.50
2017-10-06T19:14:13.185Z,10.60
2017-10-06T19:16:40.640Z,10.50
2017-10-06T19:19:08.100Z,10.70
2017-10-06T19:21:36.320Z,10.80
2017-10-06T19:24:03.776Z,10.80
2017-10-06T19:26:31.236Z,10.80
2017-10-06T19:28:58.693Z,10.80
2017-10-06T19:31:26.153Z,10.70
2017-10-06T19:33:53.605Z,10.60
2017-10-06T19:36:21.061Z,10.60
2017-10-06T19:38:48.516Z,10.70
2017-10-06T19:41:15.968Z,10.80
2017-10-06T19:43:43.425Z,10.90
2017-10-06T19:46:10.920Z,10.80
2017-10-06T19:48:38.378Z,10.70
2017-10-06T19:51:05.832Z,10.70
2017-10-06T19:53:33.288Z,10.70
2017-10-06T19:56:00.745Z,10.70
2017-10-06T19:58:28.201Z,10.80
2017-10-06T20:00:55.668Z,10.80
2017-10-06T20:03:23.126Z,10.80
2017-10-06T20:05:50.597Z,10.90
2017-10-06T20:08:18.064Z,10.90
2017-10-06T20:10:46.276Z,10.80
2017-10-06T20:13:13.740Z,10.80
2017-10-06T20:15:41.196Z,10.70
2017-10-06T20:18:08.655Z,10.80
2017-10-06T20:20:36.100Z,10.80
2017-10-06T20:23:04.233Z,10.90
2017-10-06T20:25:31.679Z,10.90
2017-10-06T20:27:59.176Z,10.70
2017-10-06T20:30:27.468Z,10.80
2017-10-06T20:32:54.930Z,10.70
2017-10-06T20:35:23.075Z,10.80
2017-10-06T20:37:50.532Z,10.80
2017-10-06T20:40:17.999Z,10.90
2017-10-06T20:42:45.460Z,10.90
2017-10-06T20:45:12.931Z,10.90
2017-10-06T20:47:40.380Z,10.90
2017-10-06T20:50:07.836Z,10.90
2017-10-06T20:52:35.296Z,10.90
2017-10-06T20:55:02.771Z,10.90
2017-10-06T20:57:30.817Z,10.90
2017-10-06T20:59:58.305Z,10.90
2017-10-06T21:02:25.760Z,10.90
2017-10-06T21:04:53.216Z,10.90
2017-10-06T21:07:20.660Z,10.80
2017-10-06T21:09:48.116Z,10.80
2017-10-06T21:12:15.572Z,10.80
2017-10-06T21:14:43.040Z,10.80
2017-10-06T21:17:10.483Z,10.90
2017-10-06T21:19:37.940Z,10.90
2017-10-06T21:22:05.396Z,10.90
2017-10-06T21:24:32.861Z,10.90
2017-10-06T21:27:00.309Z,10.90
2017-10-06T21:29:27.765Z,10.90
2017-10-06T21:31:55.221Z,10.80
2017-10-06T21:34:22.679Z,10.70
2017-10-06T21:36:50.132Z,10.70
2017-10-06T21:39:17.588Z,10.70
2017-10-06T21:41:45.045Z,10.70
2017-10-06T21:44:12.500Z,10.50
2017-10-06T21:46:39.961Z,10.60
2017-10-06T21:49:07.415Z,10.60
2017-10-06T21:51:34.880Z,10.60
2017-10-06T21:54:02.332Z,10.60
2017-10-06T21:56:31.674Z,10.50
2017-10-06T21:58:59.116Z,10.50
2017-10-06T22:01:27.356Z,10.50
2017-10-06T22:03:54.836Z,10.40
2017-10-06T22:06:23.052Z,10.50
2017-10-06T22:08:50.525Z,10.40
2017-10-06T22:11:17.977Z,10.50
2017-10-06T22:13:45.507Z,10.60
2017-10-06T22:16:13.087Z,10.60
2017-10-06T22:18:41.090Z,10.50
2017-10-06T22:21:08.939Z,10.50
2017-10-06T22:23:37.212Z,10.40
2017-10-06T22:26:04.660Z,10.40
2017-10-06T22:28:32.124Z,10.30
2017-10-06T22:30:59.577Z,10.20
2017-10-06T22:33:27.040Z,10.10
2017-10-06T22:35:54.484Z,9.90
2017-10-06T22:38:21.939Z,9.80
2017-10-06T22:40:49.383Z,9.80
2017-10-06T22:43:16.852Z,9.80
2017-10-06T22:45:44.299Z,9.70
2017-10-06T22:48:11.728Z,9.50
2017-10-06T22:50:39.183Z,9.50
2017-10-06T22:53:07.498Z,9.50
2017-10-06T22:55:34.939Z,9.50
2017-10-06T22:58:02.368Z,9.40
2017-10-06T23:00:29.807Z,9.40
2017-10-06T23:02:58.020Z,9.30
2017-10-06T23:05:25.472Z,9.30
2017-10-06T23:07:52.907Z,9.40
2017-10-06T23:10:20.352Z,9.40
2017-10-06T23:12:48.558Z,9.50
2017-10-06T23:15:15.986Z,9.50
2017-10-06T23:17:43.415Z,9.40
2017-10-06T23:20:10.862Z,9.40
2017-10-06T23:22:38.299Z,9.30
2017-10-06T23:25:05.736Z,9.20
2017-10-06T23:27:33.170Z,9.30
2017-10-06T23:30:00.603Z,9.40
2017-10-06T23:32:28.050Z,9.40
2017-10-06T23:34:55.476Z,9.30
2017-10-06T23:37:22.919Z,9.30
2017-10-06T23:39:50.360Z,9.30
2017-10-06T23:42:17.806Z,9.40
2017-10-06T23:44:45.238Z,9.40
2017-10-06T23:47:12.678Z,9.40
2017-10-06T23:49:40.111Z,9.40
2017-10-06T23:52:07.555Z,9.40
2017-10-06T23:54:34.995Z,9.30
2017-10-06T23:57:02.442Z,9.20
2017-10-06T23:59:29.870Z,9.20
